createdAt,value
2018-06-29T00:00:42.318Z,21.28
2018-06-29T00:01:43.203Z,21.28
2018-06-29T00:02:43.102Z,21.27
2018-06-29T00:03:43.669Z,21.26
2018-06-29T00:04:45.440Z,21.26
2018-06-29T00:05:46.214Z,21.26
2018-06-29T00:06:47.008Z,21.27
2018-06-29T00:07:47.780Z,21.28
2018-06-29T00:08:48.554Z,21.30
2018-06-29T00:09:49.354Z,21.31
2018-06-29T00:10:50.120Z,21.31
2018-06-29T00:11:50.914Z,21.31
2018-06-29T00:12:51.683Z,21.31
2018-06-29T00:13:52.456Z,21.30
2018-06-29T00:14:53.232Z,21.30
2018-06-29T00:15:53.999Z,21.30
2018-06-29T00:16:54.801Z,21.30
2018-06-29T00:17:55.569Z,21.30
2018-06-29T00:18:56.342Z,21.30
2018-06-29T00:19:57.111Z,21.29
2018-06-29T00:20:57.884Z,21.30
2018-06-29T00:21:58.684Z,21.30
2018-06-29T00:22:59.452Z,21.29
2018-06-29T00:24:00.232Z,21.28
2018-06-29T00:25:01.035Z,21.28
2018-06-29T00:26:01.782Z,21.28
2018-06-29T00:27:02.583Z,21.28
2018-06-29T00:28:03.357Z,21.28
2018-06-29T00:29:04.129Z,21.28
2018-06-29T00:30:04.896Z,21.27
2018-06-29T00:31:05.681Z,21.27
2018-06-29T00:32:05.468Z,21.27
2018-06-29T00:33:07.240Z,21.27
2018-06-29T00:34:08.010Z,21.26
2018-06-29T00:35:08.781Z,21.25
2018-06-29T00:36:09.656Z,21.25
2018-06-29T00:37:35.762Z,21.18
2018-06-29T00:38:36.529Z,21.16
2018-06-29T00:39:37.306Z,21.16
2018-06-29T00:40:38.071Z,21.17
2018-06-29T00:41:38.841Z,21.17
2018-06-29T00:42:39.641Z,21.17
2018-06-29T00:43:40.407Z,21.16
2018-06-29T00:44:41.178Z,21.15
2018-06-29T00:45:41.954Z,21.15
2018-06-29T00:46:42.722Z,21.15
2018-06-29T00:47:43.519Z,21.15
2018-06-29T00:48:44.289Z,21.15
2018-06-29T00:49:45.063Z,21.15
2018-06-29T00:50:45.830Z,21.15
2018-06-29T00:51:46.605Z,21.14
2018-06-29T00:52:47.400Z,21.15
2018-06-29T00:53:48.169Z,21.16
2018-06-29T00:54:48.942Z,21.18
2018-06-29T00:55:49.716Z,21.19
2018-06-29T00:56:50.487Z,21.20
2018-06-29T00:57:51.280Z,21.21
2018-06-29T00:58:52.052Z,21.22
2018-06-29T00:59:52.825Z,21.23
2018-06-29T01:00:53.595Z,21.25
2018-06-29T01:01:54.364Z,21.25
2018-06-29T01:02:55.208Z,21.26
2018-06-29T01:03:54.931Z,21.26
2018-06-29T01:04:56.706Z,21.26
2018-06-29T01:05:57.475Z,21.27
2018-06-29T01:06:58.248Z,21.26
2018-06-29T01:07:59.045Z,21.26
2018-06-29T01:08:59.814Z,21.27
2018-06-29T01:10:00.585Z,21.28
2018-06-29T01:11:01.358Z,21.28
2018-06-29T01:12:02.127Z,21.28
2018-06-29T01:13:02.926Z,21.27
2018-06-29T01:14:03.699Z,21.28
2018-06-29T01:15:04.476Z,21.28
2018-06-29T01:16:05.244Z,21.28
2018-06-29T01:17:06.019Z,21.28
2018-06-29T01:18:06.816Z,21.28
2018-06-29T01:19:07.590Z,21.28
2018-06-29T01:20:08.360Z,21.28
2018-06-29T01:21:09.133Z,21.28
2018-06-29T01:22:09.906Z,21.29
2018-06-29T01:23:10.707Z,21.30
2018-06-29T01:24:11.475Z,21.30
2018-06-29T01:25:12.249Z,21.29
2018-06-29T01:26:13.021Z,21.29
2018-06-29T01:27:13.793Z,21.30
2018-06-29T01:28:14.586Z,21.31
2018-06-29T01:29:15.361Z,21.31
2018-06-29T01:30:16.133Z,21.31
2018-06-29T01:31:16.904Z,21.30
2018-06-29T01:32:17.681Z,21.29
2018-06-29T01:33:18.478Z,21.28
2018-06-29T01:34:19.250Z,21.28
2018-06-29T01:35:20.021Z,21.27
2018-06-29T01:36:20.792Z,21.26
2018-06-29T01:37:20.565Z,21.25
2018-06-29T01:38:22.364Z,21.24
2018-06-29T01:39:23.135Z,21.23
2018-06-29T01:40:23.904Z,21.21
2018-06-29T01:41:24.696Z,21.20
2018-06-29T01:42:24.451Z,21.20
2018-06-29T01:43:26.253Z,21.18
2018-06-29T01:44:33.022Z,21.19
2018-06-29T01:50:24.060Z,20.83
2018-06-29T01:51:40.872Z,20.81
2018-06-29T01:52:25.797Z,20.80
2018-06-29T01:53:24.336Z,20.80
2018-06-29T01:54:26.154Z,20.79
2018-06-29T01:55:25.919Z,20.79
2018-06-29T01:56:27.689Z,20.78
2018-06-29T01:57:28.475Z,20.78
2018-06-29T01:58:29.238Z,20.77
2018-06-29T01:59:30.010Z,20.77
2018-06-29T02:00:30.807Z,20.77
2018-06-29T02:01:31.587Z,20.77
2018-06-29T02:02:32.366Z,20.77
2018-06-29T02:03:33.142Z,20.78
2018-06-29T02:04:33.909Z,20.78
2018-06-29T02:05:35.385Z,20.80
2018-06-29T02:06:37.575Z,20.81
2018-06-29T02:07:43.771Z,20.82
2018-06-29T02:08:35.729Z,20.82
2018-06-29T02:09:37.534Z,20.82
2018-06-29T02:10:38.379Z,20.82
2018-06-29T02:11:41.576Z,20.82
2018-06-29T02:12:38.912Z,20.81
2018-06-29T02:13:43.132Z,20.81
2018-06-29T02:15:10.833Z,20.93
2018-06-29T02:16:12.668Z,20.90
2018-06-29T02:17:13.432Z,20.90
2018-06-29T02:18:14.188Z,20.91
2018-06-29T02:19:14.961Z,20.91
2018-06-29T02:20:15.736Z,20.91
2018-06-29T02:21:16.534Z,20.91
2018-06-29T02:22:17.302Z,20.91
2018-06-29T02:23:18.073Z,20.91
2018-06-29T02:24:18.848Z,20.91
2018-06-29T02:25:19.620Z,20.91
2018-06-29T02:26:20.427Z,20.90
2018-06-29T02:27:21.240Z,20.89
2018-06-29T02:28:20.964Z,20.88
2018-06-29T02:29:22.737Z,20.87
2018-06-29T02:30:25.014Z,20.85
2018-06-29T02:31:23.320Z,20.83
2018-06-29T02:32:25.089Z,20.82
2018-06-29T02:33:28.073Z,20.82
2018-06-29T02:34:27.828Z,20.84
2018-06-29T02:35:26.429Z,20.85
2018-06-29T02:36:28.233Z,20.87
2018-06-29T02:37:29.007Z,20.87
2018-06-29T02:38:29.786Z,20.87
2018-06-29T02:39:30.560Z,20.88
2018-06-29T02:40:31.340Z,20.87
2018-06-29T02:41:34.294Z,20.86
2018-06-29T02:42:31.903Z,20.85
2018-06-29T02:43:36.117Z,20.83
2018-06-29T02:44:33.464Z,20.82
2018-06-29T02:45:35.243Z,20.81
2018-06-29T02:46:36.761Z,20.83
2018-06-29T02:47:47.193Z,20.86
2018-06-29T02:48:36.457Z,20.90
2018-06-29T02:49:37.232Z,20.93
2018-06-29T02:50:39.011Z,20.95
2018-06-29T02:51:38.782Z,20.96
2018-06-29T02:52:40.590Z,20.96
2018-06-29T02:53:46.326Z,20.96
2018-06-29T02:54:42.155Z,20.95
2018-06-29T02:55:41.879Z,20.94
2018-06-29T02:56:45.964Z,20.92
2018-06-29T02:57:43.468Z,20.90
2018-06-29T02:58:48.251Z,20.87
2018-06-29T02:59:46.070Z,20.85
2018-06-29T03:00:45.797Z,20.84
2018-06-29T03:01:47.619Z,20.83
2018-06-29T03:02:48.377Z,20.82
2018-06-29T03:03:51.349Z,20.80
2018-06-29T03:04:48.938Z,20.79
2018-06-29T03:05:53.212Z,20.78
2018-06-29T03:06:50.511Z,20.76
2018-06-29T03:07:52.284Z,20.73
2018-06-29T03:08:53.057Z,20.71
2018-06-29T03:09:56.262Z,20.68
2018-06-29T03:10:53.692Z,20.67
2018-06-29T03:11:58.276Z,20.65
2018-06-29T03:12:54.663Z,20.63
2018-06-29T03:13:56.420Z,20.61
2018-06-29T03:14:57.187Z,20.60
2018-06-29T03:15:57.957Z,20.58
2018-06-29T03:16:58.756Z,20.56
2018-06-29T03:17:59.541Z,20.55
2018-06-29T03:19:05.481Z,20.53
2018-06-29T03:20:07.049Z,20.52
2018-06-29T03:21:00.625Z,20.50
2018-06-29T03:22:04.873Z,20.48
2018-06-29T03:23:02.244Z,20.47
2018-06-29T03:24:11.624Z,20.45
2018-06-29T03:25:03.803Z,20.44
2018-06-29T03:26:23.664Z,20.43
2018-06-29T03:27:09.660Z,20.42
2018-06-29T03:28:07.807Z,20.41
2018-06-29T03:29:21.233Z,20.40
2018-06-29T03:30:12.383Z,20.39
2018-06-29T03:31:09.954Z,20.38
2018-06-29T03:32:08.630Z,20.37
2018-06-29T03:33:12.807Z,20.37
2018-06-29T03:34:12.468Z,20.37
2018-06-29T03:35:11.006Z,20.37
2018-06-29T03:36:20.355Z,20.37
2018-06-29T03:37:17.776Z,20.37
2018-06-29T03:38:13.196Z,20.36
2018-06-29T03:39:17.391Z,20.34
2018-06-29T03:40:14.829Z,20.33
2018-06-29T03:41:15.590Z,20.32
2018-06-29T03:42:16.356Z,20.31
2018-06-29T03:43:21.201Z,20.30
2018-06-29T03:44:21.210Z,20.29
2018-06-29T03:45:18.790Z,20.28
2018-06-29T03:46:23.568Z,20.27
2018-06-29T03:47:21.404Z,20.26
2018-06-29T03:48:23.619Z,20.25
2018-06-29T03:49:22.011Z,20.24
2018-06-29T03:50:22.755Z,20.24
2018-06-29T03:51:26.689Z,20.23
2018-06-29T03:52:24.825Z,20.23
2018-06-29T03:53:28.136Z,20.22
2018-06-29T03:54:25.401Z,20.21
2018-06-29T03:55:34.772Z,20.20
2018-06-29T03:56:26.985Z,20.19
2018-06-29T03:57:27.751Z,20.19
2018-06-29T03:58:29.541Z,20.18
2018-06-29T03:59:30.317Z,20.18
2018-06-29T04:00:33.253Z,20.17
2018-06-29T04:01:30.967Z,20.17
2018-06-29T04:02:34.246Z,20.17
2018-06-29T04:03:32.533Z,20.16
2018-06-29T04:04:34.306Z,20.16
2018-06-29T04:05:35.120Z,20.15
2018-06-29T04:06:34.888Z,20.15
2018-06-29T04:07:35.659Z,20.14
2018-06-29T04:08:37.426Z,20.14
2018-06-29T04:09:38.240Z,20.13
2018-06-29T04:10:46.493Z,20.13
2018-06-29T04:11:38.813Z,20.14
2018-06-29T04:12:40.638Z,20.16
2018-06-29T04:13:41.480Z,20.18
2018-06-29T04:14:41.206Z,20.21
2018-06-29T04:15:45.720Z,20.24
2018-06-29T04:16:43.494Z,20.27
2018-06-29T04:17:44.298Z,20.31
2018-06-29T04:18:45.064Z,20.35
2018-06-29T04:19:45.838Z,20.39
2018-06-29T04:20:46.612Z,20.44
2018-06-29T04:21:47.391Z,20.49
2018-06-29T04:22:48.179Z,20.54
2018-06-29T04:23:48.950Z,20.60
2018-06-29T04:24:49.729Z,20.66
2018-06-29T04:26:08.060Z,20.71
2018-06-29T04:27:06.601Z,20.76
2018-06-29T04:27:59.412Z,20.80
2018-06-29T04:40:39.208Z,20.56
2018-06-29T04:43:11.030Z,20.65
2018-06-29T04:45:34.544Z,20.59
2018-06-29T04:46:26.404Z,20.57
2018-06-29T04:47:27.984Z,20.57
2018-06-29T04:48:46.434Z,20.57
2018-06-29T04:49:32.825Z,20.57
2018-06-29T04:50:31.661Z,20.57
2018-06-29T04:51:44.354Z,20.58
2018-06-29T04:53:03.249Z,20.58
2018-06-29T04:59:26.095Z,20.45
2018-06-29T05:00:04.808Z,20.42
2018-06-29T05:00:59.763Z,20.42
2018-06-29T05:04:51.337Z,20.42
2018-06-29T05:05:25.242Z,20.42
2018-06-29T05:05:38.311Z,20.41
2018-06-29T05:06:18.666Z,20.42
2018-06-29T05:08:41.727Z,20.42
2018-06-29T05:15:31.088Z,20.46
2018-06-29T05:21:28.932Z,20.52
2018-06-29T05:21:55.824Z,20.55
2018-06-29T05:22:45.710Z,20.52
2018-06-29T05:24:30.292Z,20.53
2018-06-29T05:25:52.058Z,20.54
2018-06-29T05:26:39.639Z,20.55
2018-06-29T05:27:26.887Z,20.56
2018-06-29T05:29:13.648Z,20.58
2018-06-29T05:30:38.553Z,20.64
2018-06-29T05:30:52.719Z,20.61
2018-06-29T05:31:34.566Z,20.67
2018-06-29T05:32:32.166Z,20.71
2018-06-29T05:33:46.008Z,20.76
2018-06-29T05:35:13.405Z,20.82
2018-06-29T05:36:14.050Z,22.24
2018-06-29T05:37:11.821Z,22.23
2018-06-29T05:38:12.612Z,22.25
2018-06-29T05:39:13.354Z,22.28
2018-06-29T05:40:15.161Z,22.30
2018-06-29T05:41:17.973Z,22.31
2018-06-29T05:42:19.509Z,22.31
2018-06-29T05:43:19.027Z,22.31
2018-06-29T05:44:17.831Z,22.31
2018-06-29T05:45:35.309Z,22.31
2018-06-29T05:46:24.162Z,22.33
2018-06-29T05:47:27.001Z,22.39
2018-06-29T05:48:28.417Z,22.45
2018-06-29T06:02:30.921Z,24.73
2018-06-29T06:03:37.416Z,24.69
2018-06-29T06:04:35.661Z,24.71
2018-06-29T06:05:32.902Z,24.72
2018-06-29T06:06:48.669Z,24.73
2018-06-29T06:07:28.809Z,24.74
2018-06-29T06:08:33.153Z,24.75
2018-06-29T06:09:30.366Z,24.75
2018-06-29T06:10:32.137Z,24.76
2018-06-29T06:11:32.910Z,24.80
2018-06-29T06:12:33.684Z,24.86
2018-06-29T06:13:34.526Z,24.90
2018-06-29T06:14:34.261Z,24.94
2018-06-29T06:15:36.082Z,25.01
2018-06-29T06:16:41.353Z,25.08
2018-06-29T06:17:44.005Z,25.18
2018-06-29T06:18:37.536Z,25.27
2018-06-29T06:19:38.263Z,25.37
2018-06-29T06:20:40.042Z,25.43
2018-06-29T06:21:40.820Z,25.47
2018-06-29T06:22:44.364Z,25.51
2018-06-29T06:23:42.158Z,25.56
2018-06-29T06:24:42.930Z,25.59
2018-06-29T06:25:43.728Z,25.63
2018-06-29T06:26:46.980Z,25.70
2018-06-29T06:27:44.289Z,25.73
2018-06-29T06:28:49.106Z,25.77
2018-06-29T06:29:46.856Z,25.82
2018-06-29T06:30:47.638Z,25.84
2018-06-29T06:31:48.433Z,25.90
2018-06-29T06:32:55.207Z,25.97
2018-06-29T06:33:50.061Z,26.05
2018-06-29T06:34:50.835Z,26.13
2018-06-29T06:36:12.616Z,26.21
2018-06-29T06:36:51.386Z,26.25
2018-06-29T06:37:53.160Z,26.32
2018-06-29T06:38:53.977Z,26.39
2018-06-29T06:39:57.212Z,26.47
2018-06-29T06:40:56.746Z,26.56
2018-06-29T06:42:02.541Z,26.65
2018-06-29T06:43:22.454Z,26.71
2018-06-29T06:43:56.735Z,26.77
2018-06-29T06:44:58.544Z,26.87
2018-06-29T06:46:14.698Z,26.95
2018-06-29T06:46:59.075Z,26.97
2018-06-29T06:48:02.239Z,27.00
2018-06-29T06:49:07.855Z,27.04
2018-06-29T06:50:01.449Z,27.05
2018-06-29T06:51:05.686Z,27.04
2018-06-29T06:52:11.152Z,27.04
2018-06-29T06:53:06.022Z,27.03
2018-06-29T06:54:11.949Z,27.02
2018-06-29T06:55:08.196Z,27.00
2018-06-29T06:56:09.190Z,26.97
2018-06-29T06:57:06.752Z,27.00
2018-06-29T06:58:08.572Z,27.06
2018-06-29T07:02:15.116Z,29.46
2018-06-29T07:03:15.886Z,29.42
2018-06-29T07:04:16.659Z,29.38
2018-06-29T07:05:17.448Z,29.36
2018-06-29T07:06:18.387Z,29.31
2018-06-29T07:07:18.085Z,29.24
2018-06-29T07:08:19.859Z,29.18
2018-06-29T07:09:20.637Z,29.12
2018-06-29T07:10:21.437Z,29.09
2018-06-29T07:11:22.205Z,29.04
2018-06-29T07:12:22.995Z,28.98
2018-06-29T07:13:22.755Z,28.98
2018-06-29T07:14:24.521Z,28.94
2018-06-29T07:15:25.315Z,28.88
2018-06-29T07:16:26.091Z,28.85
2018-06-29T07:17:26.859Z,28.84
2018-06-29T07:18:27.630Z,28.83
2018-06-29T07:19:28.577Z,28.85
2018-06-29T07:20:28.302Z,28.89
2018-06-29T07:21:36.126Z,28.90
2018-06-29T07:22:29.846Z,28.87
2018-06-29T07:23:31.617Z,28.85
2018-06-29T07:24:31.457Z,28.87
2018-06-29T07:25:32.186Z,28.82
2018-06-29T07:26:33.957Z,28.83
2018-06-29T07:27:34.732Z,28.84
2018-06-29T07:28:35.502Z,28.88
2018-06-29T07:29:36.276Z,28.84
2018-06-29T07:30:37.068Z,28.84
2018-06-29T07:31:37.845Z,28.84
2018-06-29T07:32:38.617Z,28.87
2018-06-29T07:33:39.386Z,28.94
2018-06-29T07:34:40.157Z,28.97
2018-06-29T07:35:40.953Z,28.99
2018-06-29T07:36:41.724Z,29.03
2018-06-29T07:37:42.496Z,29.08
2018-06-29T07:38:43.331Z,29.13
2018-06-29T07:39:43.043Z,29.18
2018-06-29T07:40:44.837Z,29.23
2018-06-29T07:41:45.610Z,29.29
2018-06-29T07:42:46.385Z,29.41
2018-06-29T07:43:47.158Z,29.49
2018-06-29T07:44:47.927Z,29.60
2018-06-29T07:45:48.722Z,29.72
2018-06-29T07:46:49.495Z,29.80
2018-06-29T07:47:50.279Z,29.90
2018-06-29T07:48:51.040Z,29.93
2018-06-29T07:49:51.814Z,29.94
2018-06-29T07:50:52.613Z,30.04
2018-06-29T07:51:53.383Z,30.15
2018-06-29T07:52:54.213Z,30.20
2018-06-29T07:53:53.931Z,30.27
2018-06-29T07:54:55.704Z,30.33
2018-06-29T07:55:56.499Z,30.34
2018-06-29T07:56:57.273Z,30.30
2018-06-29T07:57:58.044Z,30.31
2018-06-29T07:58:58.816Z,30.30
2018-06-29T07:59:59.592Z,30.33
2018-06-29T08:01:00.384Z,30.36
2018-06-29T08:02:01.161Z,30.38
2018-06-29T08:03:01.929Z,30.49
2018-06-29T08:04:02.710Z,30.54
2018-06-29T08:05:03.482Z,30.57
2018-06-29T08:06:04.272Z,30.58
2018-06-29T08:07:05.056Z,30.61
2018-06-29T08:08:05.827Z,30.65
2018-06-29T08:09:06.599Z,30.68
2018-06-29T08:10:07.368Z,30.70
2018-06-29T08:11:08.169Z,30.71
2018-06-29T08:12:08.949Z,30.71
2018-06-29T08:13:09.748Z,30.76
2018-06-29T08:14:10.485Z,30.76
2018-06-29T08:15:11.256Z,30.82
2018-06-29T08:16:12.057Z,30.91
2018-06-29T08:17:12.828Z,31.00
2018-06-29T08:18:13.606Z,31.12
2018-06-29T08:19:14.375Z,31.19
2018-06-29T08:20:15.208Z,31.21
2018-06-29T08:21:14.949Z,31.22
2018-06-29T08:22:15.719Z,31.27
2018-06-29T08:23:17.490Z,31.30
2018-06-29T08:24:18.278Z,31.33
2018-06-29T08:25:19.038Z,31.37
2018-06-29T08:26:19.837Z,31.46
2018-06-29T08:27:20.610Z,31.50
2018-06-29T08:28:21.383Z,31.52
2018-06-29T08:29:22.149Z,31.53
2018-06-29T08:30:22.923Z,31.53
2018-06-29T08:31:23.728Z,31.54
2018-06-29T08:32:24.502Z,31.51
2018-06-29T08:33:25.273Z,31.53
2018-06-29T08:34:26.055Z,31.55
2018-06-29T08:35:26.823Z,31.55
2018-06-29T08:36:27.617Z,31.54
2018-06-29T08:37:28.392Z,31.58
2018-06-29T08:38:29.161Z,31.65
2018-06-29T08:39:29.935Z,31.72
2018-06-29T08:40:30.705Z,31.85
2018-06-29T08:41:31.502Z,31.93
2018-06-29T08:42:32.271Z,32.01
2018-06-29T08:43:33.046Z,32.08
2018-06-29T08:44:33.825Z,32.17
2018-06-29T08:45:34.641Z,32.25
2018-06-29T08:46:34.388Z,32.30
2018-06-29T08:47:35.158Z,32.38
2018-06-29T08:48:36.927Z,32.39
2018-06-29T08:49:37.806Z,32.33
2018-06-29T08:50:37.471Z,32.31
2018-06-29T08:51:39.267Z,32.32
2018-06-29T08:52:40.041Z,32.36
2018-06-29T08:53:40.816Z,32.39
2018-06-29T08:54:41.587Z,32.46
2018-06-29T08:55:42.361Z,32.53
2018-06-29T08:56:43.155Z,32.64
2018-06-29T08:57:43.926Z,32.75
2018-06-29T08:58:44.759Z,32.84
2018-06-29T08:59:44.474Z,32.89
2018-06-29T09:00:46.252Z,33.00
2018-06-29T09:01:47.410Z,33.08
2018-06-29T09:12:47.164Z,37.04
2018-06-29T09:13:47.962Z,36.98
2018-06-29T09:14:48.731Z,36.98
2018-06-29T09:15:49.502Z,37.03
2018-06-29T09:16:50.274Z,37.05
2018-06-29T09:17:51.042Z,37.09
2018-06-29T09:18:51.837Z,37.08
2018-06-29T09:19:52.611Z,37.08
2018-06-29T09:20:53.385Z,37.09
2018-06-29T09:21:54.152Z,37.10
2018-06-29T09:22:54.923Z,37.15
2018-06-29T09:23:55.719Z,37.16
2018-06-29T09:24:56.490Z,37.13
2018-06-29T09:25:57.260Z,37.13
2018-06-29T09:26:58.033Z,37.16
2018-06-29T09:27:58.804Z,37.25
2018-06-29T09:28:59.602Z,37.36
2018-06-29T09:30:00.441Z,37.36
2018-06-29T09:31:00.143Z,37.34
2018-06-29T09:32:01.916Z,37.42
2018-06-29T09:33:02.685Z,37.44
2018-06-29T09:34:03.480Z,37.44
2018-06-29T09:35:04.255Z,37.48
2018-06-29T09:36:05.024Z,37.40
2018-06-29T09:37:05.793Z,37.39
2018-06-29T09:38:06.565Z,37.39
2018-06-29T09:39:07.363Z,37.36
2018-06-29T09:40:08.139Z,37.29
2018-06-29T09:41:08.907Z,37.24
2018-06-29T09:42:09.677Z,37.28
2018-06-29T09:43:10.453Z,37.33
2018-06-29T09:44:11.247Z,37.46
2018-06-29T09:45:12.021Z,37.63
2018-06-29T09:46:12.789Z,37.75
2018-06-29T09:47:13.566Z,37.84
2018-06-29T09:48:14.338Z,37.85
2018-06-29T09:49:15.132Z,37.96
2018-06-29T09:50:15.907Z,38.03
2018-06-29T09:51:16.678Z,38.14
2018-06-29T09:52:17.453Z,38.19
2018-06-29T09:53:18.224Z,38.25
2018-06-29T09:54:19.019Z,38.35
2018-06-29T09:55:19.794Z,38.48
2018-06-29T09:56:20.567Z,38.59
2018-06-29T09:57:21.336Z,38.65
2018-06-29T09:58:22.109Z,38.78
2018-06-29T09:59:22.907Z,38.92
2018-06-29T10:00:23.682Z,39.02
2018-06-29T10:01:24.463Z,39.10
2018-06-29T10:02:24.225Z,39.15
2018-06-29T10:03:25.997Z,39.25
2018-06-29T10:04:26.796Z,39.41
2018-06-29T10:05:27.572Z,39.54
2018-06-29T10:06:28.384Z,39.66
2018-06-29T10:07:28.125Z,39.76
2018-06-29T10:08:29.888Z,39.80
2018-06-29T10:09:30.683Z,39.86
2018-06-29T10:10:31.458Z,39.94
2018-06-29T10:11:32.231Z,39.99
2018-06-29T10:12:33.005Z,40.06
2018-06-29T10:13:33.778Z,40.09
2018-06-29T10:14:34.575Z,40.11
2018-06-29T10:15:35.345Z,40.16
2018-06-29T10:16:36.121Z,40.20
2018-06-29T10:17:36.890Z,40.22
2018-06-29T10:18:37.659Z,40.28
2018-06-29T10:19:38.609Z,40.30
2018-06-29T10:20:38.235Z,40.31
2018-06-29T10:21:40.004Z,40.33
2018-06-29T10:22:40.778Z,40.43
2018-06-29T10:23:41.549Z,40.54
2018-06-29T10:24:42.343Z,40.66
2018-06-29T10:25:43.121Z,40.72
2018-06-29T10:26:43.888Z,40.75
2018-06-29T10:27:44.663Z,40.76
2018-06-29T10:28:45.436Z,40.75
2018-06-29T10:29:46.241Z,40.74
2018-06-29T10:30:47.025Z,40.82
2018-06-29T10:31:46.781Z,41.00
2018-06-29T10:32:48.551Z,41.18
2018-06-29T10:33:49.324Z,41.34
2018-06-29T10:34:50.119Z,41.25
2018-06-29T10:35:50.898Z,41.19
2018-06-29T10:36:51.721Z,41.20
2018-06-29T10:37:51.439Z,41.20
2018-06-29T10:38:53.215Z,41.17
2018-06-29T10:39:54.006Z,41.19
2018-06-29T10:40:54.780Z,41.26
2018-06-29T10:41:55.551Z,41.30
2018-06-29T10:42:56.326Z,41.35
2018-06-29T10:43:57.094Z,41.40
2018-06-29T10:44:57.917Z,41.48
2018-06-29T10:45:58.664Z,41.57
2018-06-29T10:46:59.436Z,41.64
2018-06-29T10:48:00.207Z,41.60
2018-06-29T10:49:00.981Z,41.54
2018-06-29T10:50:01.778Z,41.45
2018-06-29T10:51:02.554Z,41.22
2018-06-29T10:52:03.323Z,41.03
2018-06-29T10:53:04.096Z,40.88
2018-06-29T10:54:04.870Z,40.88
2018-06-29T10:55:05.666Z,40.97
2018-06-29T10:56:06.436Z,41.07
2018-06-29T10:57:07.212Z,41.08
2018-06-29T10:58:07.988Z,41.11
2018-06-29T10:59:08.775Z,41.05
2018-06-29T11:00:09.589Z,41.08
2018-06-29T11:01:10.336Z,41.11
2018-06-29T11:02:11.117Z,41.11
2018-06-29T11:03:11.912Z,41.15
2018-06-29T11:04:15.572Z,41.19
2018-06-29T11:05:53.905Z,41.93
2018-06-29T11:06:49.959Z,42.03
2018-06-29T11:07:51.732Z,41.93
2018-06-29T11:09:33.178Z,41.87
2018-06-29T11:09:52.288Z,41.93
2018-06-29T11:10:54.117Z,41.98
2018-06-29T11:11:53.855Z,42.05
2018-06-29T11:12:55.626Z,42.05
2018-06-29T11:13:56.396Z,42.10
2018-06-29T11:14:57.167Z,42.11
2018-06-29T11:15:57.964Z,42.13
2018-06-29T11:16:58.734Z,42.15
2018-06-29T11:17:59.516Z,42.14
2018-06-29T11:19:00.279Z,42.22
2018-06-29T11:20:01.058Z,42.27
2018-06-29T11:21:01.852Z,42.34
2018-06-29T11:22:02.625Z,42.44
2018-06-29T11:23:03.393Z,42.51
2018-06-29T11:24:04.169Z,42.49
2018-06-29T11:25:04.948Z,42.42
2018-06-29T11:26:05.736Z,42.40
2018-06-29T11:27:06.507Z,42.39
2018-06-29T11:28:07.282Z,42.44
2018-06-29T11:29:08.054Z,42.49
2018-06-29T11:30:08.832Z,42.61
2018-06-29T11:31:08.628Z,42.74
2018-06-29T11:32:10.401Z,42.83
2018-06-29T11:33:11.175Z,42.95
2018-06-29T11:34:11.952Z,43.07
2018-06-29T11:35:12.727Z,43.21
2018-06-29T11:36:13.523Z,43.25
2018-06-29T11:37:14.291Z,43.33
2018-06-29T11:38:15.067Z,43.34
2018-06-29T11:39:15.857Z,43.44
2018-06-29T11:40:16.624Z,43.44
2018-06-29T11:41:17.459Z,43.49
2018-06-29T11:42:17.192Z,43.51
2018-06-29T11:43:18.991Z,43.55
2018-06-29T11:44:19.739Z,43.61
2018-06-29T11:45:20.521Z,43.66
2018-06-29T11:46:21.309Z,43.65
2018-06-29T11:47:21.082Z,43.72
2018-06-29T11:48:22.860Z,43.75
2018-06-29T11:49:23.627Z,43.80
2018-06-29T11:50:24.398Z,43.76
2018-06-29T11:51:25.198Z,43.75
2018-06-29T11:52:24.978Z,43.68
2018-06-29T11:53:26.743Z,43.63
2018-06-29T11:54:27.514Z,43.58
2018-06-29T11:55:31.305Z,43.54
2018-06-29T11:56:29.090Z,43.50
2018-06-29T11:57:32.904Z,43.46
2018-06-29T11:58:32.905Z,43.49
2018-06-29T11:59:30.452Z,43.54
2018-06-29T12:00:32.248Z,43.64
2018-06-29T12:01:33.039Z,43.67
2018-06-29T12:02:33.852Z,43.70
2018-06-29T12:03:34.620Z,43.76
2018-06-29T12:04:35.392Z,43.72
2018-06-29T12:05:36.167Z,43.75
2018-06-29T12:06:36.961Z,43.81
2018-06-29T12:07:37.732Z,43.88
2018-06-29T12:08:38.504Z,43.92
2018-06-29T12:09:39.276Z,43.97
2018-06-29T12:10:40.062Z,43.96
2018-06-29T12:11:40.853Z,43.98
2018-06-29T12:12:40.819Z,43.94
2018-06-29T12:13:41.513Z,43.92
2018-06-29T12:14:43.327Z,43.90
2018-06-29T12:15:43.056Z,43.92
2018-06-29T12:16:44.850Z,43.89
2018-06-29T12:17:45.629Z,43.85
2018-06-29T12:18:46.395Z,43.88
2018-06-29T12:19:47.172Z,43.97
2018-06-29T12:20:48.092Z,44.00
2018-06-29T12:21:47.797Z,43.96
2018-06-29T12:22:49.566Z,43.95
2018-06-29T12:23:50.614Z,43.95
2018-06-29T12:24:50.310Z,43.93
2018-06-29T12:25:52.082Z,43.84
2018-06-29T12:26:52.874Z,43.75
2018-06-29T12:27:53.664Z,43.68
2018-06-29T12:28:54.419Z,43.60
2018-06-29T12:29:55.192Z,43.48
2018-06-29T12:30:55.964Z,43.37
2018-06-29T12:31:56.757Z,43.17
2018-06-29T12:32:57.529Z,42.98
2018-06-29T12:33:58.305Z,42.71
2018-06-29T12:34:59.079Z,42.40
2018-06-29T12:35:59.854Z,42.05
2018-06-29T12:37:00.646Z,41.66
2018-06-29T12:38:01.478Z,41.31
2018-06-29T12:39:01.191Z,40.99
2018-06-29T12:40:02.964Z,40.67
2018-06-29T12:41:03.738Z,40.37
2018-06-29T12:42:04.535Z,40.08
2018-06-29T12:43:05.306Z,39.77
2018-06-29T12:44:06.079Z,39.50
2018-06-29T12:45:06.851Z,39.23
2018-06-29T12:46:07.630Z,38.98
2018-06-29T12:47:07.418Z,38.72
2018-06-29T12:48:09.191Z,38.47
2018-06-29T12:49:09.969Z,38.26
2018-06-29T12:50:10.736Z,38.07
2018-06-29T12:51:11.506Z,37.88
2018-06-29T12:52:12.303Z,37.70
2018-06-29T12:53:13.077Z,37.48
2018-06-29T12:54:13.849Z,37.28
2018-06-29T12:55:14.626Z,37.10
2018-06-29T12:56:15.395Z,36.93
2018-06-29T12:57:16.227Z,36.75
2018-06-29T12:58:16.192Z,36.57
2018-06-29T12:59:16.889Z,36.42
2018-06-29T13:00:18.659Z,36.27
2018-06-29T13:01:19.436Z,36.13
2018-06-29T13:02:20.227Z,35.97
2018-06-29T13:03:21.003Z,35.81
2018-06-29T13:04:21.773Z,35.69
2018-06-29T13:05:22.631Z,35.58
2018-06-29T13:06:22.321Z,35.49
2018-06-29T13:07:25.460Z,35.38
2018-06-29T13:08:24.855Z,35.29
2018-06-29T13:09:25.060Z,35.21
2018-06-29T13:10:24.253Z,35.11
2018-06-29T13:13:38.106Z,32.16
2018-06-29T13:14:38.877Z,32.07
2018-06-29T13:15:39.648Z,32.12
2018-06-29T13:16:40.419Z,32.19
2018-06-29T13:17:41.191Z,32.26
2018-06-29T13:18:41.984Z,32.32
2018-06-29T13:19:42.755Z,32.36
2018-06-29T13:20:43.526Z,32.38
2018-06-29T13:21:44.306Z,32.41
2018-06-29T13:22:44.069Z,32.46
2018-06-29T13:23:45.864Z,32.48
2018-06-29T13:24:46.672Z,32.53
2018-06-29T13:25:46.411Z,32.58
2018-06-29T13:26:48.178Z,32.63
2018-06-29T13:27:48.952Z,32.67
2018-06-29T13:28:49.742Z,32.69
2018-06-29T13:29:50.558Z,32.70
2018-06-29T13:30:51.398Z,32.69
2018-06-29T13:31:51.088Z,32.70
2018-06-29T13:32:52.859Z,32.70
2018-06-29T13:33:53.703Z,32.71
2018-06-29T13:34:53.437Z,32.72
2018-06-29T13:35:55.205Z,32.72
2018-06-29T13:36:55.981Z,32.72
2018-06-29T13:37:56.749Z,32.70
2018-06-29T13:38:57.546Z,32.66
2018-06-29T13:39:58.320Z,32.62
2018-06-29T13:40:59.091Z,32.59
2018-06-29T13:41:59.865Z,32.55
2018-06-29T13:43:00.640Z,32.52
2018-06-29T13:44:01.487Z,32.51
2018-06-29T13:45:01.209Z,32.52
2018-06-29T13:46:02.979Z,32.52
2018-06-29T13:47:03.748Z,32.52
2018-06-29T13:48:04.520Z,32.52
2018-06-29T13:49:05.323Z,32.52
2018-06-29T13:50:06.090Z,32.51
2018-06-29T13:51:06.864Z,32.52
2018-06-29T13:52:07.638Z,32.52
2018-06-29T13:53:08.412Z,32.54
2018-06-29T13:54:09.211Z,32.55
2018-06-29T13:55:09.979Z,32.56
2018-06-29T13:56:10.758Z,32.56
2018-06-29T13:57:11.525Z,32.58
2018-06-29T13:58:12.295Z,32.60
2018-06-29T13:59:13.094Z,32.61
2018-06-29T14:00:13.867Z,32.62
2018-06-29T14:01:14.640Z,32.62
2018-06-29T14:02:15.414Z,32.61
2018-06-29T14:03:16.186Z,32.60
2018-06-29T14:04:16.987Z,32.60
2018-06-29T14:05:17.758Z,32.58
2018-06-29T14:06:18.531Z,32.58
2018-06-29T14:07:19.304Z,32.57
2018-06-29T14:08:20.079Z,32.57
2018-06-29T14:09:20.875Z,32.55
2018-06-29T14:10:21.654Z,32.54
2018-06-29T14:11:22.423Z,32.53